Sieper, LA (71472)

12:13 PM CDT on July 28, 2016 (GMT -0500)
Gardner | | Change Station

Elev 184 ft 31.27 °N, 92.68 °W | Updated 5 seconds ago

Mostly Cloudy
Mostly Cloudy
89.6 °F
Feels Like 99 °F
N
0.7
Wind Variable Wind from SE
Gusts 3.8 mph

Today
High -- | Low -- °F
--% Chance of Precip.
Yesterday
High -- | Low -- °F
Precip. -- in
Pressure 30.07 in
Visibility 10.0 miles
Clouds Few 3300 ft
Scattered Clouds 4600 ft
Mostly Cloudy 9500 ft
Heat Index 99 °F
Dew Point 74 °F
Humidity 61%
Rainfall 0.00 in
Snow Depth Not available.
6:25 AM 8:09 PM
Waning Crescent, 30% visible
METAR KBKB 281654Z AUTO 00000KT 10SM FEW033 SCT046 BKN095 31/24 A3000 RMK AO2 RAB45E54 SLP183 P0000 T03060239
Pressure 30.07 in
Visibility 10.0 miles
Clouds Few 3300 ft
Scattered Clouds 4600 ft
Mostly Cloudy 9500 ft
Heat Index 99 °F
Dew Point 74 °F
Humidity 61%
Rainfall 0.00 in
Snow Depth Not available.
6:25 AM 8:09 PM
Waning Crescent, 30% visible
METAR KBKB 281654Z AUTO 00000KT 10SM FEW033 SCT046 BKN095 31/24 A3000 RMK AO2 RAB45E54 SLP183 P0000 T03060239

10-Day Weather Forecast

Almanac

Astronomy

Jul. 28, 2016 Rise Set
Actual Time
Civil Twilight
Nautical Twilight
Astronomical Twilight
Moon
Length of Visible Light
Length of Day
Tomorrow will be .
, % of the Moon is Illuminated

Today's Extremes

State Highs State Lows

Community

WunderPhotos

Upload Photos

1,928,163 photos uploaded!

WunderBlog® & News

Nearby

Air Quality

  Air Quality AQ Index Pollutant
Not available.

Snow Depth

Station Depth Elevation

Earthquake Activity

City Distance Mag. Time & Date
Minimum magnitude displayed is 2.5.

Coastal Water Temperatures

Place Temperature

Stations

Nearby Weather Stations

Station Location Temp. Windchill Dew Point Humidity Wind Precip. Elev Updated Type
                   

Watches & Warnings

There are currently no watches in effect.